createdAt,value
2023-02-11T00:01:22.165Z,28.45
2023-02-11T00:03:48.567Z,28.58
2023-02-11T00:06:14.975Z,28.20
2023-02-11T00:08:41.384Z,28.81
2023-02-11T00:11:07.756Z,28.03
2023-02-11T00:13:34.162Z,28.85
2023-02-11T00:16:00.564Z,28.47
2023-02-11T00:18:26.974Z,29.11
2023-02-11T00:20:53.340Z,29.37
2023-02-11T00:23:19.690Z,29.01
2023-02-11T00:25:46.051Z,28.98
2023-02-11T00:28:12.500Z,29.82
2023-02-11T00:30:38.997Z,29.42
2023-02-11T00:33:05.450Z,28.70
2023-02-11T00:35:31.806Z,30.75
2023-02-11T00:37:58.242Z,29.67
2023-02-11T00:40:24.605Z,30.34
2023-02-11T00:42:51.024Z,31.11
2023-02-11T00:45:17.394Z,31.40
2023-02-11T00:47:43.781Z,31.48
2023-02-11T00:50:10.211Z,31.08
2023-02-11T00:52:36.615Z,32.19
2023-02-11T00:55:02.989Z,31.01
2023-02-11T00:57:29.388Z,30.41
2023-02-11T00:59:55.744Z,31.19
2023-02-11T01:02:22.095Z,30.98
2023-02-11T01:04:48.553Z,31.32
2023-02-11T01:07:14.937Z,32.33
2023-02-11T01:09:41.344Z,30.64
2023-02-11T01:12:07.773Z,32.09
2023-02-11T01:14:34.196Z,31.36
2023-02-11T01:17:00.538Z,31.88
2023-02-11T01:19:26.936Z,31.22
2023-02-11T01:21:53.294Z,30.65
2023-02-11T01:24:19.655Z,31.10
2023-02-11T01:26:46.037Z,29.84
2023-02-11T01:29:12.426Z,30.15
2023-02-11T01:31:38.944Z,30.03
2023-02-11T01:34:05.450Z,30.03
2023-02-11T01:36:31.884Z,29.40
2023-02-11T01:38:58.247Z,28.93
2023-02-11T01:41:24.641Z,29.40
2023-02-11T01:43:50.992Z,29.45
2023-02-11T01:46:17.477Z,30.41
2023-02-11T01:48:43.902Z,29.89
2023-02-11T01:51:10.300Z,29.65
2023-02-11T01:53:36.667Z,29.35
2023-02-11T01:56:03.055Z,30.32
2023-02-11T01:58:30.524Z,30.94
2023-02-11T02:00:56.874Z,33.01
2023-02-11T02:03:23.321Z,33.39
2023-02-11T02:05:49.921Z,33.36
2023-02-11T02:08:16.454Z,34.81
2023-02-11T02:10:42.842Z,35.41
2023-02-11T02:13:09.237Z,36.04
2023-02-11T02:15:35.599Z,36.31
2023-02-11T02:18:01.955Z,37.01
2023-02-11T02:20:28.360Z,37.74
2023-02-11T02:22:54.728Z,38.99
2023-02-11T02:25:21.116Z,43.10
2023-02-11T02:27:47.491Z,44.87
2023-02-11T02:30:13.886Z,44.87
2023-02-11T02:32:40.243Z,45.79
2023-02-11T02:35:06.674Z,47.00
2023-02-11T02:37:33.075Z,46.59
2023-02-11T02:39:59.435Z,44.29
2023-02-11T02:42:25.821Z,43.25
2023-02-11T02:44:52.249Z,42.09
2023-02-11T02:47:18.654Z,40.23
2023-02-11T02:49:45.012Z,40.40
2023-02-11T02:52:11.402Z,40.57
2023-02-11T02:54:37.801Z,39.36
2023-02-11T02:57:04.150Z,36.85
2023-02-11T02:59:30.538Z,36.17
2023-02-11T03:01:56.901Z,36.54
2023-02-11T03:04:23.247Z,37.04
2023-02-11T03:06:49.623Z,37.27
2023-02-11T03:09:15.981Z,37.90
2023-02-11T03:11:42.370Z,39.23
2023-02-11T03:14:08.788Z,38.15
2023-02-11T03:16:35.195Z,37.00
2023-02-11T03:19:01.616Z,38.59
2023-02-11T03:21:28.016Z,38.13
2023-02-11T03:23:54.375Z,37.02
2023-02-11T03:26:20.720Z,36.93
2023-02-11T03:28:47.082Z,36.71
2023-02-11T03:31:13.597Z,37.42
2023-02-11T03:33:40.019Z,37.13
2023-02-11T03:36:06.380Z,36.78
2023-02-11T03:38:32.779Z,36.31
2023-02-11T03:40:59.141Z,34.74
2023-02-11T03:43:25.524Z,35.83
2023-02-11T03:45:52.327Z,35.31
2023-02-11T03:48:18.985Z,34.98
2023-02-11T03:50:45.388Z,34.44
2023-02-11T03:53:11.783Z,33.31
2023-02-11T03:55:38.151Z,34.72
2023-02-11T03:58:04.542Z,34.82
2023-02-11T04:00:30.903Z,34.87
2023-02-11T04:02:57.311Z,33.81
2023-02-11T04:05:23.718Z,34.07
2023-02-11T04:07:50.075Z,33.20
2023-02-11T04:10:16.454Z,33.90
2023-02-11T04:12:42.852Z,32.91
2023-02-11T04:15:09.211Z,34.07
2023-02-11T04:17:35.647Z,34.71
2023-02-11T04:20:02.067Z,35.59
2023-02-11T04:22:28.458Z,35.01
2023-02-11T04:24:54.860Z,35.89
2023-02-11T04:27:21.261Z,34.74
2023-02-11T04:29:47.611Z,34.95
2023-02-11T04:32:13.987Z,35.46
2023-02-11T04:34:40.429Z,34.52
2023-02-11T04:37:06.819Z,34.86
2023-02-11T04:39:33.230Z,34.18
2023-02-11T04:41:59.600Z,35.43
2023-02-11T04:44:25.946Z,33.94
2023-02-11T04:46:52.299Z,33.97
2023-02-11T04:49:18.644Z,33.30
2023-02-11T04:51:46.510Z,33.92
2023-02-11T04:54:14.634Z,33.29
2023-02-11T04:56:41.032Z,33.42
2023-02-11T04:59:07.387Z,33.57
2023-02-11T05:01:33.835Z,32.73
2023-02-11T05:04:00.291Z,33.20
2023-02-11T05:06:26.716Z,34.02
2023-02-11T05:08:53.087Z,35.72
2023-02-11T05:11:19.449Z,36.69
2023-02-11T05:13:45.863Z,37.09
2023-02-11T05:16:12.266Z,36.47
2023-02-11T05:18:38.637Z,34.79
2023-02-11T05:21:05.023Z,36.94
2023-02-11T05:23:31.380Z,35.37
2023-02-11T05:25:57.754Z,36.22
2023-02-11T05:28:24.174Z,35.82
2023-02-11T05:30:50.577Z,34.95
2023-02-11T05:33:16.960Z,33.94
2023-02-11T05:35:43.339Z,34.89
2023-02-11T05:38:09.714Z,35.21
2023-02-11T05:40:36.064Z,35.31
2023-02-11T05:43:02.448Z,34.41
2023-02-11T05:45:28.864Z,34.24
2023-02-11T05:47:55.252Z,33.55
2023-02-11T05:50:21.616Z,33.20
2023-02-11T05:52:48.007Z,34.21
2023-02-11T05:55:14.480Z,34.12
2023-02-11T05:57:40.875Z,33.38
2023-02-11T06:00:07.246Z,33.48
2023-02-11T06:02:33.613Z,33.62
2023-02-11T06:05:00.056Z,35.32
2023-02-11T06:07:26.479Z,35.33
2023-02-11T06:09:52.844Z,35.81
2023-02-11T06:12:19.182Z,35.63
2023-02-11T06:14:45.544Z,35.00
2023-02-11T06:17:13.971Z,36.24
2023-02-11T06:19:41.682Z,36.58
2023-02-11T06:22:08.122Z,37.99
2023-02-11T06:24:58.481Z,37.29
2023-02-11T06:27:20.967Z,38.24
2023-02-11T06:29:47.306Z,37.86
2023-02-11T06:32:36.989Z,36.19
2023-02-11T06:35:00.046Z,35.69
2023-02-11T06:37:26.400Z,34.88
2023-02-11T06:39:52.758Z,34.95
2023-02-11T06:42:19.124Z,34.89
2023-02-11T06:44:45.513Z,34.04
2023-02-11T06:47:11.914Z,34.14
2023-02-11T06:49:38.327Z,33.85
2023-02-11T06:52:04.712Z,35.22
2023-02-11T06:54:31.077Z,34.82
2023-02-11T06:56:57.474Z,34.49
2023-02-11T06:59:23.830Z,33.68
2023-02-11T07:01:50.249Z,34.22
2023-02-11T07:04:16.615Z,35.92
2023-02-11T07:06:42.963Z,36.57
2023-02-11T07:09:09.364Z,36.77
2023-02-11T07:11:35.725Z,36.01
2023-02-11T07:14:02.136Z,37.82
2023-02-11T07:16:28.573Z,38.26
2023-02-11T07:18:55.027Z,39.50
2023-02-11T07:21:21.434Z,40.47
2023-02-11T07:23:47.795Z,39.66
2023-02-11T07:26:14.192Z,37.97
2023-02-11T07:28:40.596Z,36.21
2023-02-11T07:31:07.107Z,37.43
2023-02-11T07:33:33.588Z,38.54
2023-02-11T07:35:59.955Z,38.72
2023-02-11T07:38:26.355Z,38.34
2023-02-11T07:40:52.707Z,39.47
2023-02-11T07:43:19.097Z,40.44
2023-02-11T07:45:45.456Z,38.65
2023-02-11T07:48:11.794Z,38.67
2023-02-11T07:50:38.204Z,38.62
2023-02-11T07:53:04.573Z,37.53
2023-02-11T07:55:30.972Z,37.10
2023-02-11T07:57:57.339Z,37.57
2023-02-11T08:00:23.709Z,39.45
2023-02-11T08:02:50.065Z,41.78
2023-02-11T08:05:16.457Z,42.43
2023-02-11T08:07:42.859Z,44.34
2023-02-11T08:10:09.227Z,43.51
2023-02-11T08:12:35.589Z,42.35
2023-02-11T08:15:01.979Z,41.20
2023-02-11T08:17:28.355Z,40.92
2023-02-11T08:19:54.740Z,39.85
2023-02-11T08:22:21.092Z,39.50
2023-02-11T08:24:47.496Z,40.31
2023-02-11T08:27:13.907Z,39.44
2023-02-11T08:29:40.274Z,39.00
2023-02-11T08:32:06.690Z,41.73
2023-02-11T08:34:33.115Z,40.84
2023-02-11T08:36:59.488Z,42.58
2023-02-11T08:39:25.828Z,43.68
2023-02-11T08:41:52.177Z,44.33
2023-02-11T08:44:18.607Z,43.28
2023-02-11T08:46:45.005Z,43.37
2023-02-11T08:49:11.500Z,43.72
2023-02-11T08:51:37.920Z,43.61
2023-02-11T08:54:04.281Z,43.08
2023-02-11T08:56:30.635Z,43.24
2023-02-11T08:58:56.977Z,43.42
2023-02-11T09:01:23.399Z,42.49
2023-02-11T09:03:49.780Z,43.23
2023-02-11T09:06:16.178Z,44.16
2023-02-11T09:08:45.316Z,45.11
2023-02-11T09:11:12.629Z,44.84
2023-02-11T09:13:39.016Z,44.88
2023-02-11T09:16:05.385Z,46.08
2023-02-11T09:18:31.785Z,45.56
2023-02-11T09:20:58.149Z,46.95
2023-02-11T09:23:24.534Z,46.79
2023-02-11T09:25:51.171Z,46.81
2023-02-11T09:28:17.732Z,47.63
2023-02-11T09:30:44.231Z,47.90
2023-02-11T09:33:10.654Z,49.15
2023-02-11T09:35:39.358Z,49.78
2023-02-11T09:38:05.767Z,49.12
2023-02-11T09:40:32.130Z,48.10
2023-02-11T09:43:03.008Z,47.78
2023-02-11T09:45:30.508Z,48.91
2023-02-11T09:47:56.913Z,48.48
2023-02-11T09:50:23.267Z,45.67
2023-02-11T09:52:49.713Z,45.83
2023-02-11T09:55:16.136Z,45.92
2023-02-11T09:57:42.542Z,45.02
2023-02-11T10:00:08.942Z,47.20
2023-02-11T10:02:35.336Z,47.03
2023-02-11T10:05:01.740Z,47.98
2023-02-11T10:07:28.151Z,44.79
2023-02-11T10:09:54.560Z,45.15
2023-02-11T10:12:20.922Z,47.38
2023-02-11T10:14:47.325Z,47.18
2023-02-11T10:17:13.732Z,47.26
2023-02-11T10:19:40.115Z,47.59
2023-02-11T10:22:06.695Z,46.22
2023-02-11T10:24:33.050Z,45.52
2023-02-11T10:26:59.440Z,45.36
2023-02-11T10:29:25.803Z,44.43
2023-02-11T10:31:52.226Z,45.76
2023-02-11T10:34:18.636Z,47.16
2023-02-11T10:36:44.993Z,45.95
2023-02-11T10:39:11.385Z,46.02
2023-02-11T10:41:37.783Z,44.88
2023-02-11T10:44:04.193Z,44.30
2023-02-11T10:46:30.650Z,44.38
2023-02-11T10:48:57.074Z,45.67
2023-02-11T10:51:23.587Z,43.94
2023-02-11T10:53:49.969Z,44.04
2023-02-11T10:56:16.361Z,44.59
2023-02-11T10:58:42.903Z,44.21
2023-02-11T11:01:23.515Z,42.85
2023-02-11T11:03:50.913Z,43.52
2023-02-11T11:06:17.299Z,44.61
2023-02-11T11:08:43.660Z,44.72
2023-02-11T11:11:10.109Z,44.92
2023-02-11T11:13:36.521Z,43.76
2023-02-11T11:16:02.985Z,42.87
2023-02-11T11:18:29.401Z,41.58
2023-02-11T11:20:55.751Z,43.37
2023-02-11T11:23:22.133Z,43.86
2023-02-11T11:25:48.489Z,43.71
2023-02-11T11:28:14.902Z,44.51
2023-02-11T11:30:41.385Z,43.89
2023-02-11T11:33:07.774Z,43.88
2023-02-11T11:35:34.119Z,43.72
2023-02-11T11:38:01.956Z,44.60
2023-02-11T11:40:28.541Z,43.82
2023-02-11T11:42:54.908Z,44.20
2023-02-11T11:45:21.289Z,44.40
2023-02-11T11:47:47.684Z,44.86
2023-02-11T11:50:14.045Z,43.58
2023-02-11T11:52:40.443Z,43.83
2023-02-11T11:55:06.870Z,45.21
2023-02-11T11:57:33.241Z,43.92
2023-02-11T11:59:59.636Z,45.33
2023-02-11T12:02:26.150Z,43.59
2023-02-11T12:04:52.532Z,43.59
2023-02-11T12:07:18.884Z,41.89
2023-02-11T12:09:45.249Z,42.91
2023-02-11T12:12:11.650Z,44.40
2023-02-11T12:14:38.016Z,44.28
2023-02-11T12:17:04.363Z,43.46
2023-02-11T12:19:30.717Z,43.33
2023-02-11T12:21:57.110Z,43.97
2023-02-11T12:24:23.513Z,42.94
2023-02-11T12:26:49.974Z,43.92
2023-02-11T12:29:16.330Z,44.96
2023-02-11T12:31:42.691Z,43.73
2023-02-11T12:34:09.085Z,43.43
2023-02-11T12:36:35.477Z,42.59
2023-02-11T12:39:01.885Z,42.88
2023-02-11T12:41:28.264Z,43.47
2023-02-11T12:43:54.654Z,42.97
2023-02-11T12:46:21.155Z,42.91
2023-02-11T12:48:47.611Z,44.14
2023-02-11T12:51:13.979Z,44.33
2023-02-11T12:53:40.346Z,42.15
2023-02-11T12:56:06.819Z,42.16
2023-02-11T12:58:44.650Z,43.49
2023-02-11T13:01:12.059Z,42.99
2023-02-11T13:03:38.452Z,43.46
2023-02-11T13:06:04.807Z,43.30
2023-02-11T13:08:31.232Z,43.24
2023-02-11T13:10:57.584Z,43.29
2023-02-11T13:13:24.005Z,44.56
2023-02-11T13:15:50.368Z,43.21
2023-02-11T13:18:19.015Z,43.23
2023-02-11T13:20:45.592Z,42.86
2023-02-11T13:23:11.948Z,41.10
2023-02-11T13:25:38.294Z,41.02
2023-02-11T13:28:04.698Z,41.72
2023-02-11T13:30:31.104Z,40.94
2023-02-11T13:32:57.485Z,40.88
2023-02-11T13:35:23.841Z,39.49
2023-02-11T13:37:50.233Z,40.80
2023-02-11T13:40:16.601Z,40.32
2023-02-11T13:42:45.518Z,44.04
2023-02-11T13:45:11.908Z,40.47
2023-02-11T13:47:38.323Z,38.78
2023-02-11T13:50:04.708Z,37.11
2023-02-11T13:52:31.100Z,37.46
2023-02-11T13:54:57.459Z,39.09
2023-02-11T13:57:23.861Z,37.88
2023-02-11T13:59:50.224Z,36.88
2023-02-11T14:02:16.622Z,36.96
2023-02-11T14:04:43.074Z,36.39
2023-02-11T14:07:09.476Z,36.01
2023-02-11T14:09:35.887Z,36.45
2023-02-11T14:12:02.262Z,35.81
2023-02-11T14:14:28.660Z,36.81
2023-02-11T14:16:55.095Z,34.90
2023-02-11T14:19:21.504Z,35.75
2023-02-11T14:21:47.847Z,36.80
2023-02-11T14:24:14.233Z,35.14
2023-02-11T14:26:40.741Z,35.66
2023-02-11T14:29:07.129Z,34.68
2023-02-11T14:31:33.635Z,33.29
2023-02-11T14:34:00.125Z,33.03
2023-02-11T14:36:26.513Z,33.37
2023-02-11T14:38:52.921Z,32.85
2023-02-11T14:41:19.328Z,34.04
2023-02-11T14:43:45.731Z,32.15
2023-02-11T14:46:12.126Z,32.94
2023-02-11T14:48:38.518Z,32.82
2023-02-11T14:51:04.950Z,33.39
2023-02-11T14:53:31.320Z,33.50
2023-02-11T14:55:57.776Z,32.51
2023-02-11T14:58:24.198Z,32.48
2023-02-11T15:00:50.789Z,32.83
2023-02-11T15:03:17.384Z,31.66
2023-02-11T15:05:43.773Z,31.15
2023-02-11T15:08:10.163Z,31.43
2023-02-11T15:10:36.604Z,31.52
2023-02-11T15:13:03.032Z,32.16
2023-02-11T15:15:29.408Z,31.54
2023-02-11T15:17:55.767Z,30.83
2023-02-11T15:20:22.158Z,29.63
2023-02-11T15:22:48.523Z,30.26
2023-02-11T15:25:14.942Z,30.68
2023-02-11T15:27:41.333Z,28.27
2023-02-11T15:30:07.718Z,28.63
2023-02-11T15:32:34.168Z,28.53
2023-02-11T15:35:00.621Z,29.98
2023-02-11T15:37:26.984Z,27.99
2023-02-11T15:39:53.397Z,27.97
2023-02-11T15:42:19.805Z,28.68
2023-02-11T15:44:46.537Z,28.81
2023-02-11T15:47:14.366Z,28.20
2023-02-11T15:49:40.753Z,28.38
2023-02-11T15:52:07.353Z,27.82
2023-02-11T15:54:33.716Z,26.70
2023-02-11T15:57:00.152Z,26.06
2023-02-11T15:59:26.546Z,26.49
2023-02-11T16:01:52.949Z,24.58
2023-02-11T16:04:19.364Z,24.47
2023-02-11T16:06:45.820Z,24.24
2023-02-11T16:09:12.172Z,23.69
2023-02-11T16:11:38.564Z,25.12
2023-02-11T16:14:07.021Z,24.69
2023-02-11T16:16:33.628Z,25.24
2023-02-11T16:19:05.296Z,27.02
2023-02-11T16:21:32.266Z,27.03
2023-02-11T16:23:58.672Z,27.66
2023-02-11T16:26:25.046Z,26.35
2023-02-11T16:28:51.437Z,26.28
2023-02-11T16:31:17.864Z,25.74
2023-02-11T16:33:44.267Z,27.48
2023-02-11T16:36:10.659Z,25.45
2023-02-11T16:38:37.081Z,26.95
2023-02-11T16:41:03.482Z,28.66
2023-02-11T16:43:29.848Z,27.33
2023-02-11T16:45:56.175Z,27.10
2023-02-11T16:48:22.682Z,27.04
2023-02-11T16:50:51.483Z,26.36
2023-02-11T16:53:19.601Z,28.33
2023-02-11T16:55:45.998Z,28.96
2023-02-11T16:58:12.376Z,28.50
2023-02-11T17:00:38.849Z,29.76
2023-02-11T17:03:05.296Z,29.35
2023-02-11T17:05:37.840Z,29.12
2023-02-11T17:08:09.179Z,27.72
2023-02-11T17:10:35.589Z,27.99
2023-02-11T17:13:01.971Z,29.36
2023-02-11T17:15:28.318Z,28.95
2023-02-11T17:17:54.745Z,28.93
2023-02-11T17:20:21.144Z,28.77
2023-02-11T17:22:47.547Z,28.22
2023-02-11T17:25:13.947Z,27.36
2023-02-11T17:27:40.351Z,28.09
2023-02-11T17:30:06.756Z,28.59
2023-02-11T17:32:33.112Z,30.47
2023-02-11T17:34:59.513Z,30.04
2023-02-11T17:37:26.019Z,31.64
2023-02-11T17:39:52.372Z,31.41
2023-02-11T17:42:18.723Z,29.60
2023-02-11T17:44:45.116Z,27.03
2023-02-11T17:47:11.492Z,28.53
2023-02-11T17:49:37.876Z,30.74
2023-02-11T17:52:04.239Z,31.10
2023-02-11T17:54:30.666Z,31.41
2023-02-11T17:56:58.460Z,32.73
2023-02-11T17:59:25.039Z,32.47
2023-02-11T18:01:51.443Z,32.12
2023-02-11T18:04:17.992Z,31.39
2023-02-11T18:06:44.458Z,30.27
2023-02-11T18:09:10.807Z,31.07
2023-02-11T18:11:37.206Z,32.10
2023-02-11T18:14:03.608Z,33.18
2023-02-11T18:16:30.062Z,34.28
2023-02-11T18:18:56.476Z,34.47
2023-02-11T18:21:22.904Z,33.22
2023-02-11T18:23:49.268Z,32.27
2023-02-11T18:26:15.661Z,36.13
2023-02-11T18:28:45.306Z,38.00
2023-02-11T18:31:12.327Z,38.78
2023-02-11T18:33:38.704Z,38.83
2023-02-11T18:36:05.133Z,34.77
2023-02-11T18:38:31.497Z,33.59
2023-02-11T18:40:57.858Z,35.17
2023-02-11T18:43:24.246Z,34.37
2023-02-11T18:45:51.177Z,33.03
2023-02-11T18:48:17.813Z,32.05
2023-02-11T18:50:44.169Z,32.37
2023-02-11T18:53:10.525Z,32.47
2023-02-11T18:55:36.866Z,31.92
2023-02-11T18:58:03.269Z,31.14
2023-02-11T19:00:29.623Z,31.47
2023-02-11T19:02:55.968Z,31.87
2023-02-11T19:05:22.366Z,31.30
2023-02-11T19:07:48.762Z,31.72
2023-02-11T19:10:15.360Z,33.03
2023-02-11T19:12:41.791Z,35.70
2023-02-11T19:15:08.147Z,34.99
2023-02-11T19:17:34.498Z,34.03
2023-02-11T19:20:00.838Z,34.50
2023-02-11T19:22:27.191Z,36.34
2023-02-11T19:24:53.539Z,37.08
2023-02-11T19:27:19.885Z,39.64
2023-02-11T19:29:46.266Z,38.58
2023-02-11T19:32:12.675Z,39.62
2023-02-11T19:34:39.035Z,40.32
2023-02-11T19:37:05.426Z,38.53
2023-02-11T19:39:31.781Z,39.09
2023-02-11T19:41:58.155Z,38.13
2023-02-11T19:44:24.507Z,38.83
2023-02-11T19:46:50.896Z,40.22
2023-02-11T19:49:17.255Z,41.02
2023-02-11T19:51:43.617Z,40.30
2023-02-11T19:54:10.032Z,44.87
2023-02-11T19:56:36.399Z,40.00
2023-02-11T19:59:02.748Z,41.38
2023-02-11T20:01:29.208Z,44.02
2023-02-11T20:03:55.651Z,45.02
2023-02-11T20:06:22.057Z,47.96
2023-02-11T20:08:48.456Z,50.48
2023-02-11T20:11:14.857Z,53.74
2023-02-11T20:13:41.218Z,54.30
2023-02-11T20:16:07.633Z,50.64
2023-02-11T20:18:34.025Z,48.94
2023-02-11T20:21:00.387Z,44.67
2023-02-11T20:23:26.737Z,46.40
2023-02-11T20:25:53.439Z,54.63
2023-02-11T20:28:20.084Z,46.00
2023-02-11T20:30:46.528Z,47.64
2023-02-11T20:33:12.987Z,44.35
2023-02-11T20:35:39.334Z,40.57
2023-02-11T20:38:05.716Z,43.72
2023-02-11T20:40:32.104Z,45.59
2023-02-11T20:42:58.461Z,60.66
2023-02-11T20:45:24.844Z,54.62
2023-02-11T20:47:51.202Z,50.40
2023-02-11T20:50:17.546Z,46.29
2023-02-11T20:52:43.948Z,44.92
2023-02-11T20:55:10.369Z,38.55
2023-02-11T20:57:36.780Z,39.11
2023-02-11T21:00:03.231Z,43.13
2023-02-11T21:02:29.591Z,39.80
2023-02-11T21:04:55.973Z,40.30
2023-02-11T21:07:22.376Z,39.39
2023-02-11T21:09:48.743Z,38.24
2023-02-11T21:12:15.121Z,37.83
2023-02-11T21:14:41.486Z,34.35
2023-02-11T21:17:07.831Z,34.58
2023-02-11T21:19:34.191Z,35.72
2023-02-11T21:22:00.542Z,35.79
2023-02-11T21:24:26.938Z,34.03
2023-02-11T21:26:53.308Z,34.21
2023-02-11T21:29:19.720Z,35.07
2023-02-11T21:31:46.135Z,35.27
2023-02-11T21:34:12.564Z,36.24
2023-02-11T21:36:39.102Z,34.13
2023-02-11T21:39:05.473Z,34.75
2023-02-11T21:41:31.874Z,36.09
2023-02-11T21:43:58.287Z,35.73
2023-02-11T21:46:24.727Z,35.85
2023-02-11T21:48:51.103Z,37.07
2023-02-11T21:51:17.483Z,37.75
2023-02-11T21:53:43.813Z,35.46
2023-02-11T21:56:10.166Z,37.01
2023-02-11T21:58:36.558Z,36.62
2023-02-11T22:01:03.015Z,35.90
2023-02-11T22:03:29.406Z,34.72
2023-02-11T22:05:56.114Z,35.92
2023-02-11T22:08:22.650Z,36.84
2023-02-11T22:10:49.002Z,37.93
2023-02-11T22:13:15.359Z,35.30
2023-02-11T22:15:41.757Z,38.36
2023-02-11T22:18:08.124Z,36.37
2023-02-11T22:20:34.508Z,33.66
2023-02-11T22:23:00.907Z,31.66
2023-02-11T22:25:27.314Z,30.61
2023-02-11T22:27:53.701Z,29.36
2023-02-11T22:30:20.097Z,27.12
2023-02-11T22:32:46.499Z,26.63
2023-02-11T22:35:12.959Z,25.20
2023-02-11T22:37:39.355Z,25.90
2023-02-11T22:40:05.705Z,26.62
2023-02-11T22:42:32.069Z,26.31
2023-02-11T22:44:58.407Z,25.97
2023-02-11T22:47:24.827Z,26.02
2023-02-11T22:49:51.233Z,26.28
2023-02-11T22:52:17.636Z,26.67
2023-02-11T22:54:44.000Z,26.54
2023-02-11T22:57:10.394Z,25.75
2023-02-11T22:59:36.776Z,25.95
2023-02-11T23:02:03.285Z,26.16
2023-02-11T23:04:29.748Z,26.45
2023-02-11T23:06:56.102Z,26.06
2023-02-11T23:09:22.514Z,26.15
2023-02-11T23:11:48.902Z,27.43
2023-02-11T23:14:15.294Z,27.74
2023-02-11T23:16:41.780Z,27.13
2023-02-11T23:19:08.199Z,27.82
2023-02-11T23:21:34.588Z,26.84
2023-02-11T23:24:00.971Z,26.41
2023-02-11T23:26:27.354Z,25.52
2023-02-11T23:28:53.690Z,25.93
2023-02-11T23:31:20.113Z,27.63
2023-02-11T23:33:46.544Z,27.37
2023-02-11T23:36:12.895Z,26.25
2023-02-11T23:38:39.252Z,26.53
2023-02-11T23:41:05.610Z,27.08
2023-02-11T23:43:31.997Z,26.17
2023-02-11T23:45:58.493Z,25.56
2023-02-11T23:48:25.023Z,23.69
2023-02-11T23:50:51.416Z,23.80
2023-02-11T23:53:17.844Z,24.00
2023-02-11T23:55:44.247Z,24.30
2023-02-11T23:58:10.592Z,25.17
